sensor_id;sensor_type;location;lat;lon;timestamp;temperature;humidity
45693;DHT22;31402;44.752;-0.374;2022-12-18T00:01:57;6.60;99.90
45693;DHT22;31402;44.752;-0.374;2022-12-18T00:04:25;6.60;99.90
45693;DHT22;31402;44.752;-0.374;2022-12-18T00:06:52;6.60;99.90
45693;DHT22;31402;44.752;-0.374;2022-12-18T00:09:18;6.60;99.90
45693;DHT22;31402;44.752;-0.374;2022-12-18T00:11:44;6.50;99.90
45693;DHT22;31402;44.752;-0.374;2022-12-18T00:14:13;6.40;99.90
45693;DHT22;31402;44.752;-0.374;2022-12-18T00:16:40;6.30;99.90
45693;DHT22;31402;44.752;-0.374;2022-12-18T00:19:10;6.30;99.90
45693;DHT22;31402;44.752;-0.374;2022-12-18T00:21:35;6.20;99.90
45693;DHT22;31402;44.752;-0.374;2022-12-18T00:24:01;6.20;99.90
45693;DHT22;31402;44.752;-0.374;2022-12-18T00:26:32;6.20;99.90
45693;DHT22;31402;44.752;-0.374;2022-12-18T00:29:00;6.30;99.90
45693;DHT22;31402;44.752;-0.374;2022-12-18T00:31:26;6.40;99.90
45693;DHT22;31402;44.752;-0.374;2022-12-18T00:33:54;6.70;99.90
45693;DHT22;31402;44.752;-0.374;2022-12-18T00:36:23;6.60;99.90
45693;DHT22;31402;44.752;-0.374;2022-12-18T00:38:49;6.70;99.90
45693;DHT22;31402;44.752;-0.374;2022-12-18T00:41:17;6.70;99.90
45693;DHT22;31402;44.752;-0.374;2022-12-18T00:44:03;6.70;99.90
45693;DHT22;31402;44.752;-0.374;2022-12-18T00:46:30;6.50;99.90
45693;DHT22;31402;44.752;-0.374;2022-12-18T00:48:56;6.50;99.90
45693;DHT22;31402;44.752;-0.374;2022-12-18T00:51:23;6.40;99.90
45693;DHT22;31402;44.752;-0.374;2022-12-18T00:53:49;6.40;99.90
45693;DHT22;31402;44.752;-0.374;2022-12-18T00:56:14;6.40;99.90
45693;DHT22;31402;44.752;-0.374;2022-12-18T00:58:40;6.60;99.90
45693;DHT22;31402;44.752;-0.374;2022-12-18T01:01:06;6.70;99.90
45693;DHT22;31402;44.752;-0.374;2022-12-18T01:03:32;6.60;99.90
45693;DHT22;31402;44.752;-0.374;2022-12-18T01:05:58;6.70;99.90
45693;DHT22;31402;44.752;-0.374;2022-12-18T01:08:24;6.80;99.90
45693;DHT22;31402;44.752;-0.374;2022-12-18T01:10:50;6.70;99.90
45693;DHT22;31402;44.752;-0.374;2022-12-18T01:13:16;6.80;99.90
45693;DHT22;31402;44.752;-0.374;2022-12-18T01:15:51;6.80;99.90
45693;DHT22;31402;44.752;-0.374;2022-12-18T01:18:17;6.80;99.90
45693;DHT22;31402;44.752;-0.374;2022-12-18T01:20:43;6.80;99.90
45693;DHT22;31402;44.752;-0.374;2022-12-18T01:23:08;6.90;99.90
45693;DHT22;31402;44.752;-0.374;2022-12-18T01:25:36;6.90;99.90
45693;DHT22;31402;44.752;-0.374;2022-12-18T01:28:02;6.90;99.90
45693;DHT22;31402;44.752;-0.374;2022-12-18T01:30:28;6.80;99.90
45693;DHT22;31402;44.752;-0.374;2022-12-18T01:32:54;6.70;99.90
45693;DHT22;31402;44.752;-0.374;2022-12-18T01:35:19;6.70;99.90
45693;DHT22;31402;44.752;-0.374;2022-12-18T01:37:45;6.50;99.90
45693;DHT22;31402;44.752;-0.374;2022-12-18T01:40:11;6.60;99.90
45693;DHT22;31402;44.752;-0.374;2022-12-18T01:42:37;6.40;99.90
45693;DHT22;31402;44.752;-0.374;2022-12-18T01:47:55;6.60;99.90
45693;DHT22;31402;44.752;-0.374;2022-12-18T01:55:32;6.50;99.90
45693;DHT22;31402;44.752;-0.374;2022-12-18T01:58:01;6.60;99.90
45693;DHT22;31402;44.752;-0.374;2022-12-18T02:00:27;6.70;99.90
45693;DHT22;31402;44.752;-0.374;2022-12-18T02:02:53;6.60;99.90
45693;DHT22;31402;44.752;-0.374;2022-12-18T02:08:16;6.60;99.90
45693;DHT22;31402;44.752;-0.374;2022-12-18T02:11:08;6.80;99.90
45693;DHT22;31402;44.752;-0.374;2022-12-18T02:18:48;6.90;99.90
45693;DHT22;31402;44.752;-0.374;2022-12-18T02:21:45;6.80;99.90
45693;DHT22;31402;44.752;-0.374;2022-12-18T02:24:29;6.80;99.90
45693;DHT22;31402;44.752;-0.374;2022-12-18T02:27:04;6.60;99.90
45693;DHT22;31402;44.752;-0.374;2022-12-18T02:29:36;6.50;99.90
45693;DHT22;31402;44.752;-0.374;2022-12-18T02:32:08;6.40;99.90
45693;DHT22;31402;44.752;-0.374;2022-12-18T02:34:37;6.40;99.90
45693;DHT22;31402;44.752;-0.374;2022-12-18T02:37:07;6.30;99.90
45693;DHT22;31402;44.752;-0.374;2022-12-18T02:39:35;6.30;99.90
45693;DHT22;31402;44.752;-0.374;2022-12-18T02:42:02;6.20;99.90
45693;DHT22;31402;44.752;-0.374;2022-12-18T02:44:35;6.20;99.90
45693;DHT22;31402;44.752;-0.374;2022-12-18T02:47:10;6.00;99.90
45693;DHT22;31402;44.752;-0.374;2022-12-18T03:00:28;6.30;99.90
45693;DHT22;31402;44.752;-0.374;2022-12-18T03:02:59;6.30;99.90
45693;DHT22;31402;44.752;-0.374;2022-12-18T03:05:41;6.30;99.90
45693;DHT22;31402;44.752;-0.374;2022-12-18T03:08:19;6.40;99.90
45693;DHT22;31402;44.752;-0.374;2022-12-18T03:10:50;6.30;99.90
45693;DHT22;31402;44.752;-0.374;2022-12-18T03:13:23;6.20;99.90
45693;DHT22;31402;44.752;-0.374;2022-12-18T03:15:52;6.20;99.90
45693;DHT22;31402;44.752;-0.374;2022-12-18T03:18:28;6.20;99.90
45693;DHT22;31402;44.752;-0.374;2022-12-18T03:20:59;6.30;99.90
45693;DHT22;31402;44.752;-0.374;2022-12-18T03:23:29;6.10;99.90
45693;DHT22;31402;44.752;-0.374;2022-12-18T03:26:00;6.20;99.90
45693;DHT22;31402;44.752;-0.374;2022-12-18T03:28:29;6.10;99.90
45693;DHT22;31402;44.752;-0.374;2022-12-18T03:30:59;6.20;99.90
45693;DHT22;31402;44.752;-0.374;2022-12-18T03:33:30;6.10;99.90
45693;DHT22;31402;44.752;-0.374;2022-12-18T03:35:57;6.10;99.90
45693;DHT22;31402;44.752;-0.374;2022-12-18T03:38:23;6.10;99.90
45693;DHT22;31402;44.752;-0.374;2022-12-18T03:41:13;6.20;99.90
45693;DHT22;31402;44.752;-0.374;2022-12-18T03:46:52;6.30;99.90
45693;DHT22;31402;44.752;-0.374;2022-12-18T03:52:28;6.10;99.90
45693;DHT22;31402;44.752;-0.374;2022-12-18T03:54:56;6.00;99.90
45693;DHT22;31402;44.752;-0.374;2022-12-18T03:57:26;6.00;99.90
45693;DHT22;31402;44.752;-0.374;2022-12-18T03:59:57;5.80;99.90
45693;DHT22;31402;44.752;-0.374;2022-12-18T04:02:25;5.70;99.90
45693;DHT22;31402;44.752;-0.374;2022-12-18T04:04:53;5.60;99.90
45693;DHT22;31402;44.752;-0.374;2022-12-18T04:07:21;5.70;99.90
45693;DHT22;31402;44.752;-0.374;2022-12-18T04:09:49;5.60;99.90
45693;DHT22;31402;44.752;-0.374;2022-12-18T04:12:16;5.60;99.90
45693;DHT22;31402;44.752;-0.374;2022-12-18T04:14:42;5.70;99.90
45693;DHT22;31402;44.752;-0.374;2022-12-18T04:17:08;5.70;99.90
45693;DHT22;31402;44.752;-0.374;2022-12-18T04:19:33;5.70;99.90
45693;DHT22;31402;44.752;-0.374;2022-12-18T04:21:59;5.80;99.90
45693;DHT22;31402;44.752;-0.374;2022-12-18T04:24:25;5.60;99.90
45693;DHT22;31402;44.752;-0.374;2022-12-18T04:26:50;5.90;99.90
45693;DHT22;31402;44.752;-0.374;2022-12-18T04:29:16;5.70;99.90
45693;DHT22;31402;44.752;-0.374;2022-12-18T04:31:42;5.70;99.90
45693;DHT22;31402;44.752;-0.374;2022-12-18T04:34:08;5.80;99.90
45693;DHT22;31402;44.752;-0.374;2022-12-18T04:36:33;5.80;99.90
45693;DHT22;31402;44.752;-0.374;2022-12-18T04:38:59;5.70;99.90
45693;DHT22;31402;44.752;-0.374;2022-12-18T04:41:25;5.80;99.90
45693;DHT22;31402;44.752;-0.374;2022-12-18T04:43:51;5.80;99.90
45693;DHT22;31402;44.752;-0.374;2022-12-18T04:46:16;5.80;99.90
45693;DHT22;31402;44.752;-0.374;2022-12-18T04:48:45;5.90;99.90
45693;DHT22;31402;44.752;-0.374;2022-12-18T04:51:11;6.00;99.90
45693;DHT22;31402;44.752;-0.374;2022-12-18T04:53:37;6.10;99.90
45693;DHT22;31402;44.752;-0.374;2022-12-18T04:56:05;6.00;99.90
45693;DHT22;31402;44.752;-0.374;2022-12-18T04:58:30;5.90;99.90
45693;DHT22;31402;44.752;-0.374;2022-12-18T05:00:56;6.10;99.90
45693;DHT22;31402;44.752;-0.374;2022-12-18T05:03:22;6.10;99.90
45693;DHT22;31402;44.752;-0.374;2022-12-18T05:05:50;6.20;99.90
45693;DHT22;31402;44.752;-0.374;2022-12-18T05:08:17;6.00;99.90
45693;DHT22;31402;44.752;-0.374;2022-12-18T05:10:42;6.20;99.90
45693;DHT22;31402;44.752;-0.374;2022-12-18T05:13:09;6.10;99.90
45693;DHT22;31402;44.752;-0.374;2022-12-18T05:15:35;5.90;99.90
45693;DHT22;31402;44.752;-0.374;2022-12-18T05:18:01;6.00;99.90
45693;DHT22;31402;44.752;-0.374;2022-12-18T05:20:27;6.30;99.90
45693;DHT22;31402;44.752;-0.374;2022-12-18T05:22:54;6.30;99.90
45693;DHT22;31402;44.752;-0.374;2022-12-18T05:25:20;6.40;99.90
45693;DHT22;31402;44.752;-0.374;2022-12-18T05:27:46;6.40;99.90
45693;DHT22;31402;44.752;-0.374;2022-12-18T05:30:13;6.40;99.90
45693;DHT22;31402;44.752;-0.374;2022-12-18T05:32:39;6.30;99.90
45693;DHT22;31402;44.752;-0.374;2022-12-18T05:35:07;6.40;99.90
45693;DHT22;31402;44.752;-0.374;2022-12-18T05:37:34;6.40;99.90
45693;DHT22;31402;44.752;-0.374;2022-12-18T05:40:00;6.50;99.90
45693;DHT22;31402;44.752;-0.374;2022-12-18T05:42:26;6.50;99.90
45693;DHT22;31402;44.752;-0.374;2022-12-18T05:44:52;6.50;99.90
45693;DHT22;31402;44.752;-0.374;2022-12-18T05:47:18;6.40;99.90
45693;DHT22;31402;44.752;-0.374;2022-12-18T05:49:43;6.20;99.90
45693;DHT22;31402;44.752;-0.374;2022-12-18T05:52:09;6.20;99.90
45693;DHT22;31402;44.752;-0.374;2022-12-18T05:54:35;6.10;99.90
45693;DHT22;31402;44.752;-0.374;2022-12-18T05:57:01;6.10;99.90
45693;DHT22;31402;44.752;-0.374;2022-12-18T05:59:27;6.30;99.90
45693;DHT22;31402;44.752;-0.374;2022-12-18T06:01:52;6.40;99.90
45693;DHT22;31402;44.752;-0.374;2022-12-18T06:04:18;6.40;99.90
45693;DHT22;31402;44.752;-0.374;2022-12-18T06:06:44;6.20;99.90
45693;DHT22;31402;44.752;-0.374;2022-12-18T06:09:10;6.20;99.90
45693;DHT22;31402;44.752;-0.374;2022-12-18T06:11:37;6.30;99.90
45693;DHT22;31402;44.752;-0.374;2022-12-18T06:14:04;6.30;99.90
45693;DHT22;31402;44.752;-0.374;2022-12-18T06:16:31;6.30;99.90
45693;DHT22;31402;44.752;-0.374;2022-12-18T06:19:01;6.40;99.90
45693;DHT22;31402;44.752;-0.374;2022-12-18T06:21:28;6.60;99.90
45693;DHT22;31402;44.752;-0.374;2022-12-18T06:23:54;6.60;99.90
45693;DHT22;31402;44.752;-0.374;2022-12-18T06:26:19;6.60;99.90
45693;DHT22;31402;44.752;-0.374;2022-12-18T06:28:45;6.50;99.90
45693;DHT22;31402;44.752;-0.374;2022-12-18T06:31:11;6.50;99.90
45693;DHT22;31402;44.752;-0.374;2022-12-18T06:33:37;6.60;99.90
45693;DHT22;31402;44.752;-0.374;2022-12-18T06:36:09;6.60;99.90
45693;DHT22;31402;44.752;-0.374;2022-12-18T06:38:37;6.60;99.90
45693;DHT22;31402;44.752;-0.374;2022-12-18T06:41:08;6.60;99.90
45693;DHT22;31402;44.752;-0.374;2022-12-18T06:43:33;6.70;99.90
45693;DHT22;31402;44.752;-0.374;2022-12-18T06:46:00;6.60;99.90
45693;DHT22;31402;44.752;-0.374;2022-12-18T06:48:26;6.60;99.90
45693;DHT22;31402;44.752;-0.374;2022-12-18T06:50:52;6.50;99.90
45693;DHT22;31402;44.752;-0.374;2022-12-18T06:53:18;6.60;99.90
45693;DHT22;31402;44.752;-0.374;2022-12-18T06:55:43;6.50;99.90
45693;DHT22;31402;44.752;-0.374;2022-12-18T06:58:09;6.60;99.90
45693;DHT22;31402;44.752;-0.374;2022-12-18T07:00:35;6.60;99.90
45693;DHT22;31402;44.752;-0.374;2022-12-18T07:03:01;6.50;99.90
45693;DHT22;31402;44.752;-0.374;2022-12-18T07:05:27;6.60;99.90
45693;DHT22;31402;44.752;-0.374;2022-12-18T07:07:52;6.60;99.90
45693;DHT22;31402;44.752;-0.374;2022-12-18T07:10:18;6.50;99.90
45693;DHT22;31402;44.752;-0.374;2022-12-18T07:12:44;6.50;99.90
45693;DHT22;31402;44.752;-0.374;2022-12-18T07:15:10;6.20;99.90
45693;DHT22;31402;44.752;-0.374;2022-12-18T07:17:36;6.10;99.90
45693;DHT22;31402;44.752;-0.374;2022-12-18T07:20:03;6.40;99.90
45693;DHT22;31402;44.752;-0.374;2022-12-18T07:22:29;6.50;99.90
45693;DHT22;31402;44.752;-0.374;2022-12-18T07:24:55;6.50;99.90
45693;DHT22;31402;44.752;-0.374;2022-12-18T07:27:21;6.40;99.90
45693;DHT22;31402;44.752;-0.374;2022-12-18T07:29:47;6.40;99.90
45693;DHT22;31402;44.752;-0.374;2022-12-18T07:32:12;6.40;99.90
45693;DHT22;31402;44.752;-0.374;2022-12-18T07:34:38;6.50;99.90
45693;DHT22;31402;44.752;-0.374;2022-12-18T07:37:04;6.60;99.90
45693;DHT22;31402;44.752;-0.374;2022-12-18T07:39:30;6.30;99.90
45693;DHT22;31402;44.752;-0.374;2022-12-18T07:41:56;6.40;99.90
45693;DHT22;31402;44.752;-0.374;2022-12-18T07:44:40;6.50;99.90
45693;DHT22;31402;44.752;-0.374;2022-12-18T07:47:06;6.70;99.90
45693;DHT22;31402;44.752;-0.374;2022-12-18T07:49:32;6.70;99.90
45693;DHT22;31402;44.752;-0.374;2022-12-18T07:51:58;6.70;99.90
45693;DHT22;31402;44.752;-0.374;2022-12-18T07:54:24;6.70;99.90
45693;DHT22;31402;44.752;-0.374;2022-12-18T07:56:51;6.70;99.90
45693;DHT22;31402;44.752;-0.374;2022-12-18T07:59:17;6.90;99.90
45693;DHT22;31402;44.752;-0.374;2022-12-18T08:01:43;6.80;99.90
45693;DHT22;31402;44.752;-0.374;2022-12-18T08:04:09;6.80;99.90
45693;DHT22;31402;44.752;-0.374;2022-12-18T08:06:35;6.70;99.90
45693;DHT22;31402;44.752;-0.374;2022-12-18T08:09:01;6.70;99.90
45693;DHT22;31402;44.752;-0.374;2022-12-18T08:11:28;6.60;99.90
45693;DHT22;31402;44.752;-0.374;2022-12-18T08:13:54;6.70;99.90
45693;DHT22;31402;44.752;-0.374;2022-12-18T08:16:21;6.80;99.90
45693;DHT22;31402;44.752;-0.374;2022-12-18T08:18:48;6.80;99.90
45693;DHT22;31402;44.752;-0.374;2022-12-18T08:21:17;6.90;99.90
45693;DHT22;31402;44.752;-0.374;2022-12-18T08:23:44;7.10;99.90
45693;DHT22;31402;44.752;-0.374;2022-12-18T08:26:11;7.10;99.90
45693;DHT22;31402;44.752;-0.374;2022-12-18T08:28:37;7.20;99.90
45693;DHT22;31402;44.752;-0.374;2022-12-18T08:31:03;7.30;99.90
45693;DHT22;31402;44.752;-0.374;2022-12-18T08:33:29;7.50;99.90
45693;DHT22;31402;44.752;-0.374;2022-12-18T08:35:55;7.60;99.90
45693;DHT22;31402;44.752;-0.374;2022-12-18T08:38:21;7.70;99.90
45693;DHT22;31402;44.752;-0.374;2022-12-18T08:40:48;7.50;99.90
45693;DHT22;31402;44.752;-0.374;2022-12-18T08:43:14;7.50;99.90
45693;DHT22;31402;44.752;-0.374;2022-12-18T08:45:57;7.80;99.90
45693;DHT22;31402;44.752;-0.374;2022-12-18T08:48:23;7.90;99.90
45693;DHT22;31402;44.752;-0.374;2022-12-18T08:50:56;8.10;99.90
45693;DHT22;31402;44.752;-0.374;2022-12-18T08:53:22;8.10;99.90
45693;DHT22;31402;44.752;-0.374;2022-12-18T08:55:48;8.20;99.90
45693;DHT22;31402;44.752;-0.374;2022-12-18T08:58:13;8.30;99.90
45693;DHT22;31402;44.752;-0.374;2022-12-18T09:00:39;8.40;99.90
45693;DHT22;31402;44.752;-0.374;2022-12-18T09:03:05;8.40;99.90
45693;DHT22;31402;44.752;-0.374;2022-12-18T09:05:31;8.60;99.90
45693;DHT22;31402;44.752;-0.374;2022-12-18T09:07:56;8.60;99.90
45693;DHT22;31402;44.752;-0.374;2022-12-18T09:10:22;8.40;99.90
45693;DHT22;31402;44.752;-0.374;2022-12-18T09:12:48;8.50;99.90
45693;DHT22;31402;44.752;-0.374;2022-12-18T09:15:14;8.40;99.90
45693;DHT22;31402;44.752;-0.374;2022-12-18T09:17:39;8.30;99.90
45693;DHT22;31402;44.752;-0.374;2022-12-18T09:20:05;8.30;99.90
45693;DHT22;31402;44.752;-0.374;2022-12-18T09:22:31;8.20;99.90
45693;DHT22;31402;44.752;-0.374;2022-12-18T09:24:57;8.20;99.90
45693;DHT22;31402;44.752;-0.374;2022-12-18T09:27:23;8.30;99.90
45693;DHT22;31402;44.752;-0.374;2022-12-18T09:29:48;8.50;99.90
45693;DHT22;31402;44.752;-0.374;2022-12-18T09:32:14;8.50;99.90
45693;DHT22;31402;44.752;-0.374;2022-12-18T09:34:40;8.40;99.90
45693;DHT22;31402;44.752;-0.374;2022-12-18T09:37:06;8.20;99.90
45693;DHT22;31402;44.752;-0.374;2022-12-18T09:39:31;8.40;99.90
45693;DHT22;31402;44.752;-0.374;2022-12-18T09:41:58;8.40;99.90
45693;DHT22;31402;44.752;-0.374;2022-12-18T09:44:52;8.60;99.90
45693;DHT22;31402;44.752;-0.374;2022-12-18T09:47:28;8.60;99.90
45693;DHT22;31402;44.752;-0.374;2022-12-18T09:50:02;8.80;99.90
45693;DHT22;31402;44.752;-0.374;2022-12-18T09:57:47;9.30;99.90
45693;DHT22;31402;44.752;-0.374;2022-12-18T10:00:21;9.70;99.90
45693;DHT22;31402;44.752;-0.374;2022-12-18T10:02:49;9.80;99.90
45693;DHT22;31402;44.752;-0.374;2022-12-18T10:05:24;9.90;99.90
45693;DHT22;31402;44.752;-0.374;2022-12-18T10:08:00;9.90;99.90
45693;DHT22;31402;44.752;-0.374;2022-12-18T10:13:04;10.10;99.90
45693;DHT22;31402;44.752;-0.374;2022-12-18T10:15:45;10.10;99.90
45693;DHT22;31402;44.752;-0.374;2022-12-18T10:18:55;10.20;99.90
45693;DHT22;31402;44.752;-0.374;2022-12-18T10:22:01;10.30;99.90
45693;DHT22;31402;44.752;-0.374;2022-12-18T10:24:43;10.30;99.90
45693;DHT22;31402;44.752;-0.374;2022-12-18T10:27:14;10.40;99.90
45693;DHT22;31402;44.752;-0.374;2022-12-18T10:29:42;10.70;99.90
45693;DHT22;31402;44.752;-0.374;2022-12-18T10:32:18;10.60;99.90
45693;DHT22;31402;44.752;-0.374;2022-12-18T10:34:48;10.40;99.90
45693;DHT22;31402;44.752;-0.374;2022-12-18T10:37:23;10.70;99.90
45693;DHT22;31402;44.752;-0.374;2022-12-18T10:40:15;10.80;99.90
45693;DHT22;31402;44.752;-0.374;2022-12-18T10:42:41;10.80;99.90
45693;DHT22;31402;44.752;-0.374;2022-12-18T10:45:16;10.80;99.90
45693;DHT22;31402;44.752;-0.374;2022-12-18T10:47:48;10.70;99.90
45693;DHT22;31402;44.752;-0.374;2022-12-18T10:50:29;11.10;99.90
45693;DHT22;31402;44.752;-0.374;2022-12-18T10:52:58;11.10;99.90
45693;DHT22;31402;44.752;-0.374;2022-12-18T10:55:38;11.00;99.90
45693;DHT22;31402;44.752;-0.374;2022-12-18T11:01:09;11.00;99.90
45693;DHT22;31402;44.752;-0.374;2022-12-18T11:06:19;10.80;99.90
45693;DHT22;31402;44.752;-0.374;2022-12-18T11:09:20;11.00;99.90
45693;DHT22;31402;44.752;-0.374;2022-12-18T11:11:51;10.80;99.90
45693;DHT22;31402;44.752;-0.374;2022-12-18T11:14:30;11.00;99.90
45693;DHT22;31402;44.752;-0.374;2022-12-18T11:16:58;11.30;99.90
45693;DHT22;31402;44.752;-0.374;2022-12-18T11:21:51;11.40;99.60
45693;DHT22;31402;44.752;-0.374;2022-12-18T11:24:43;11.60;99.40
45693;DHT22;31402;44.752;-0.374;2022-12-18T11:27:18;11.50;99.40
45693;DHT22;31402;44.752;-0.374;2022-12-18T11:29:44;11.30;99.80
45693;DHT22;31402;44.752;-0.374;2022-12-18T11:37:52;11.30;99.60
45693;DHT22;31402;44.752;-0.374;2022-12-18T11:40:44;11.40;99.70
45693;DHT22;31402;44.752;-0.374;2022-12-18T11:43:27;11.50;99.30
45693;DHT22;31402;44.752;-0.374;2022-12-18T11:46:07;11.50;99.40
45693;DHT22;31402;44.752;-0.374;2022-12-18T11:48:52;11.50;99.90
45693;DHT22;31402;44.752;-0.374;2022-12-18T11:51:38;11.70;99.90
45693;DHT22;31402;44.752;-0.374;2022-12-18T11:54:14;11.50;99.50
45693;DHT22;31402;44.752;-0.374;2022-12-18T11:57:24;11.70;99.50
45693;DHT22;31402;44.752;-0.374;2022-12-18T12:00:03;11.70;99.00
45693;DHT22;31402;44.752;-0.374;2022-12-18T12:05:18;12.00;99.00
45693;DHT22;31402;44.752;-0.374;2022-12-18T12:07:55;11.80;98.80
45693;DHT22;31402;44.752;-0.374;2022-12-18T12:10:38;11.50;99.30
45693;DHT22;31402;44.752;-0.374;2022-12-18T12:18:44;11.90;99.40
45693;DHT22;31402;44.752;-0.374;2022-12-18T12:21:28;11.90;98.90
45693;DHT22;31402;44.752;-0.374;2022-12-18T12:24:24;11.90;98.70
45693;DHT22;31402;44.752;-0.374;2022-12-18T12:32:01;12.20;99.20
45693;DHT22;31402;44.752;-0.374;2022-12-18T12:39:47;12.40;98.60
45693;DHT22;31402;44.752;-0.374;2022-12-18T12:42:20;12.10;98.90
45693;DHT22;31402;44.752;-0.374;2022-12-18T12:45:19;12.00;99.10
45693;DHT22;31402;44.752;-0.374;2022-12-18T12:47:49;12.10;99.30
45693;DHT22;31402;44.752;-0.374;2022-12-18T12:50:18;12.30;98.90
45693;DHT22;31402;44.752;-0.374;2022-12-18T12:52:47;12.50;98.70
45693;DHT22;31402;44.752;-0.374;2022-12-18T12:55:19;12.50;98.50
45693;DHT22;31402;44.752;-0.374;2022-12-18T13:00:20;12.60;98.20
45693;DHT22;31402;44.752;-0.374;2022-12-18T13:08:03;12.60;98.80
45693;DHT22;31402;44.752;-0.374;2022-12-18T13:13:09;12.60;98.80
45693;DHT22;31402;44.752;-0.374;2022-12-18T13:15:46;12.70;98.70
45693;DHT22;31402;44.752;-0.374;2022-12-18T13:18:18;12.80;98.80
45693;DHT22;31402;44.752;-0.374;2022-12-18T13:20:50;13.10;98.10
45693;DHT22;31402;44.752;-0.374;2022-12-18T13:23:25;12.90;98.40
45693;DHT22;31402;44.752;-0.374;2022-12-18T13:25:53;13.00;98.30
45693;DHT22;31402;44.752;-0.374;2022-12-18T13:34:25;13.30;97.80
45693;DHT22;31402;44.752;-0.374;2022-12-18T13:36:52;13.30;98.00
45693;DHT22;31402;44.752;-0.374;2022-12-18T13:42:31;13.40;97.60
45693;DHT22;31402;44.752;-0.374;2022-12-18T13:44:59;13.40;97.60
45693;DHT22;31402;44.752;-0.374;2022-12-18T13:47:34;13.30;97.80
45693;DHT22;31402;44.752;-0.374;2022-12-18T13:50:23;13.10;98.00
45693;DHT22;31402;44.752;-0.374;2022-12-18T13:52:50;13.10;98.00
45693;DHT22;31402;44.752;-0.374;2022-12-18T13:55:19;12.90;98.40
45693;DHT22;31402;44.752;-0.374;2022-12-18T13:57:45;12.80;98.40
45693;DHT22;31402;44.752;-0.374;2022-12-18T14:00:28;12.60;98.90
45693;DHT22;31402;44.752;-0.374;2022-12-18T14:02:55;12.70;98.80
45693;DHT22;31402;44.752;-0.374;2022-12-18T14:07:48;12.80;98.80
45693;DHT22;31402;44.752;-0.374;2022-12-18T14:10:15;13.00;98.60
45693;DHT22;31402;44.752;-0.374;2022-12-18T14:12:45;12.90;98.90
45693;DHT22;31402;44.752;-0.374;2022-12-18T14:20:25;13.10;98.70
45693;DHT22;31402;44.752;-0.374;2022-12-18T14:22:51;13.00;98.40
45693;DHT22;31402;44.752;-0.374;2022-12-18T14:25:23;13.10;98.50
45693;DHT22;31402;44.752;-0.374;2022-12-18T14:28:13;13.00;98.50
45693;DHT22;31402;44.752;-0.374;2022-12-18T14:30:41;13.00;98.70
45693;DHT22;31402;44.752;-0.374;2022-12-18T14:33:13;13.00;99.00
45693;DHT22;31402;44.752;-0.374;2022-12-18T14:36:02;13.00;99.10
45693;DHT22;31402;44.752;-0.374;2022-12-18T14:38:31;12.90;98.80
45693;DHT22;31402;44.752;-0.374;2022-12-18T14:41:05;12.90;99.00
45693;DHT22;31402;44.752;-0.374;2022-12-18T14:43:35;12.80;98.80
45693;DHT22;31402;44.752;-0.374;2022-12-18T14:46:02;12.90;98.90
45693;DHT22;31402;44.752;-0.374;2022-12-18T14:48:40;12.80;98.80
45693;DHT22;31402;44.752;-0.374;2022-12-18T14:53:43;12.40;99.60
45693;DHT22;31402;44.752;-0.374;2022-12-18T14:58:58;12.60;99.50
45693;DHT22;31402;44.752;-0.374;2022-12-18T15:01:44;12.80;99.10
45693;DHT22;31402;44.752;-0.374;2022-12-18T15:04:40;12.50;99.70
45693;DHT22;31402;44.752;-0.374;2022-12-18T15:07:22;12.40;99.90
45693;DHT22;31402;44.752;-0.374;2022-12-18T15:10:17;12.50;99.90
45693;DHT22;31402;44.752;-0.374;2022-12-18T15:13:07;12.70;99.70
45693;DHT22;31402;44.752;-0.374;2022-12-18T15:18:03;12.80;99.60
45693;DHT22;31402;44.752;-0.374;2022-12-18T15:20:48;12.80;99.60
45693;DHT22;31402;44.752;-0.374;2022-12-18T15:23:19;12.90;99.60
45693;DHT22;31402;44.752;-0.374;2022-12-18T15:25:47;12.80;99.70
45693;DHT22;31402;44.752;-0.374;2022-12-18T15:28:21;12.60;99.90
45693;DHT22;31402;44.752;-0.374;2022-12-18T15:33:36;12.80;99.80
45693;DHT22;31402;44.752;-0.374;2022-12-18T15:36:09;12.80;99.80
45693;DHT22;31402;44.752;-0.374;2022-12-18T15:38:36;12.60;99.90
45693;DHT22;31402;44.752;-0.374;2022-12-18T15:41:02;12.50;99.90
45693;DHT22;31402;44.752;-0.374;2022-12-18T15:43:28;12.50;99.90
45693;DHT22;31402;44.752;-0.374;2022-12-18T15:46:14;12.60;99.90
45693;DHT22;31402;44.752;-0.374;2022-12-18T15:48:43;12.60;99.90
45693;DHT22;31402;44.752;-0.374;2022-12-18T15:53:49;12.60;99.90
45693;DHT22;31402;44.752;-0.374;2022-12-18T15:56:16;12.60;99.90
45693;DHT22;31402;44.752;-0.374;2022-12-18T15:59:01;12.40;99.90
45693;DHT22;31402;44.752;-0.374;2022-12-18T16:01:29;12.30;99.90
45693;DHT22;31402;44.752;-0.374;2022-12-18T16:03:55;12.30;99.90
45693;DHT22;31402;44.752;-0.374;2022-12-18T16:06:22;12.30;99.90
45693;DHT22;31402;44.752;-0.374;2022-12-18T16:08:48;12.40;99.90
45693;DHT22;31402;44.752;-0.374;2022-12-18T16:16:46;12.10;99.90
45693;DHT22;31402;44.752;-0.374;2022-12-18T16:19:12;12.20;99.90
45693;DHT22;31402;44.752;-0.374;2022-12-18T16:21:38;12.20;99.90
45693;DHT22;31402;44.752;-0.374;2022-12-18T16:24:04;12.10;99.90
45693;DHT22;31402;44.752;-0.374;2022-12-18T16:26:30;12.10;99.90
45693;DHT22;31402;44.752;-0.374;2022-12-18T16:28:56;12.10;99.90
45693;DHT22;31402;44.752;-0.374;2022-12-18T16:31:22;12.00;99.90
45693;DHT22;31402;44.752;-0.374;2022-12-18T16:33:48;11.90;99.90
45693;DHT22;31402;44.752;-0.374;2022-12-18T16:36:14;12.00;99.90
45693;DHT22;31402;44.752;-0.374;2022-12-18T16:38:39;12.10;99.90
45693;DHT22;31402;44.752;-0.374;2022-12-18T16:41:20;12.20;99.90
45693;DHT22;31402;44.752;-0.374;2022-12-18T16:44:01;12.20;99.90
45693;DHT22;31402;44.752;-0.374;2022-12-18T16:46:27;12.10;99.90
45693;DHT22;31402;44.752;-0.374;2022-12-18T16:48:53;12.10;99.90
45693;DHT22;31402;44.752;-0.374;2022-12-18T16:51:18;11.90;99.90
45693;DHT22;31402;44.752;-0.374;2022-12-18T16:53:44;11.90;99.90
45693;DHT22;31402;44.752;-0.374;2022-12-18T16:56:10;12.00;99.90
45693;DHT22;31402;44.752;-0.374;2022-12-18T16:58:35;11.90;99.90
45693;DHT22;31402;44.752;-0.374;2022-12-18T17:01:09;11.90;99.90
45693;DHT22;31402;44.752;-0.374;2022-12-18T17:03:34;12.00;99.90
45693;DHT22;31402;44.752;-0.374;2022-12-18T17:06:04;11.90;99.90
45693;DHT22;31402;44.752;-0.374;2022-12-18T17:08:30;11.80;99.90
45693;DHT22;31402;44.752;-0.374;2022-12-18T17:11:02;11.80;99.90
45693;DHT22;31402;44.752;-0.374;2022-12-18T17:13:28;11.80;99.90
45693;DHT22;31402;44.752;-0.374;2022-12-18T17:15:54;11.80;99.90
45693;DHT22;31402;44.752;-0.374;2022-12-18T17:18:19;11.90;99.90
45693;DHT22;31402;44.752;-0.374;2022-12-18T17:20:46;11.90;99.90
45693;DHT22;31402;44.752;-0.374;2022-12-18T17:23:11;11.90;99.90
45693;DHT22;31402;44.752;-0.374;2022-12-18T17:25:40;11.90;99.90
45693;DHT22;31402;44.752;-0.374;2022-12-18T17:28:06;11.90;99.90
45693;DHT22;31402;44.752;-0.374;2022-12-18T17:30:32;11.80;99.90
45693;DHT22;31402;44.752;-0.374;2022-12-18T17:32:58;11.80;99.90
45693;DHT22;31402;44.752;-0.374;2022-12-18T17:35:23;11.70;99.90
45693;DHT22;31402;44.752;-0.374;2022-12-18T17:37:49;11.70;99.90
45693;DHT22;31402;44.752;-0.374;2022-12-18T17:40:15;11.70;99.90
45693;DHT22;31402;44.752;-0.374;2022-12-18T17:42:41;11.70;99.90